createdAt,value
2022-09-11T00:01:33.256Z,13.20
2022-09-11T00:04:02.575Z,13.20
2022-09-11T00:06:30.968Z,13.10
2022-09-11T00:09:01.545Z,13.10
2022-09-11T00:11:31.461Z,13.10
2022-09-11T00:14:01.800Z,13.00
2022-09-11T00:16:33.857Z,13.00
2022-09-11T00:19:03.933Z,13.00
2022-09-11T00:21:32.249Z,12.90
2022-09-11T00:24:00.604Z,12.90
2022-09-11T00:26:28.991Z,12.90
2022-09-11T00:28:57.504Z,12.90
2022-09-11T00:31:28.439Z,12.90
2022-09-11T00:33:56.762Z,12.80
2022-09-11T00:36:26.333Z,12.80
2022-09-11T00:38:54.471Z,12.80
2022-09-11T00:41:25.888Z,12.70
2022-09-11T00:44:00.571Z,12.70
2022-09-11T00:46:36.197Z,12.60
2022-09-11T00:49:15.909Z,12.60
2022-09-11T00:51:47.940Z,12.60
2022-09-11T00:54:21.024Z,12.60
2022-09-11T00:56:50.282Z,12.60
2022-09-11T00:59:21.342Z,12.50
2022-09-11T01:01:50.710Z,12.50
2022-09-11T01:04:18.925Z,12.40
2022-09-11T01:06:49.210Z,12.40
2022-09-11T01:09:17.546Z,12.40
2022-09-11T01:11:53.437Z,12.40
2022-09-11T01:14:37.424Z,12.40
2022-09-11T01:17:19.345Z,12.40
2022-09-11T01:20:14.392Z,12.40
2022-09-11T01:23:09.026Z,12.40
2022-09-11T01:25:56.823Z,12.40
2022-09-11T01:28:33.663Z,12.50
2022-09-11T01:31:08.938Z,12.50
2022-09-11T01:33:44.769Z,12.50
2022-09-11T01:36:19.142Z,12.50
2022-09-11T01:38:51.113Z,12.50
2022-09-11T01:41:23.936Z,12.50
2022-09-11T01:43:57.877Z,12.40
2022-09-11T01:46:29.213Z,12.40
2022-09-11T01:49:04.168Z,12.40
2022-09-11T01:51:36.190Z,12.40
2022-09-11T01:54:08.182Z,12.30
2022-09-11T01:56:40.852Z,12.30
2022-09-11T01:59:14.443Z,12.30
2022-09-11T02:01:51.140Z,12.40
2022-09-11T02:04:23.072Z,12.30
2022-09-11T02:06:56.041Z,12.40
2022-09-11T02:09:27.210Z,12.40
2022-09-11T02:11:58.161Z,12.40
2022-09-11T02:14:32.188Z,12.40
2022-09-11T02:17:08.843Z,12.50
2022-09-11T02:19:36.896Z,12.50
2022-09-11T02:22:06.135Z,12.50
2022-09-11T02:24:34.568Z,12.50
2022-09-11T02:27:06.232Z,12.60
2022-09-11T02:29:36.678Z,12.60
2022-09-11T02:32:04.945Z,12.60
2022-09-11T02:34:35.390Z,12.60
2022-09-11T02:37:18.113Z,12.60
2022-09-11T02:40:04.131Z,12.70
2022-09-11T02:42:42.009Z,12.60
2022-09-11T02:45:24.473Z,12.70
2022-09-11T02:48:03.130Z,12.70
2022-09-11T02:50:38.808Z,12.70
2022-09-11T02:53:11.343Z,12.70
2022-09-11T02:55:53.216Z,12.70
2022-09-11T02:58:26.815Z,12.70
2022-09-11T03:00:59.135Z,12.80
2022-09-11T03:03:27.196Z,12.90
2022-09-11T03:05:55.690Z,12.90
2022-09-11T03:08:23.674Z,12.90
2022-09-11T03:10:51.667Z,13.00
2022-09-11T03:13:19.672Z,13.00
2022-09-11T03:15:48.144Z,13.00
2022-09-11T03:18:17.515Z,13.00
2022-09-11T03:20:46.937Z,13.00
2022-09-11T03:23:15.174Z,13.00
2022-09-11T03:25:43.143Z,13.00
2022-09-11T03:28:11.331Z,13.00
2022-09-11T03:30:41.440Z,13.00
2022-09-11T03:33:09.443Z,13.00
2022-09-11T03:35:38.773Z,13.00
2022-09-11T03:38:06.732Z,13.00
2022-09-11T03:40:34.693Z,13.00
2022-09-11T03:43:02.747Z,13.00
2022-09-11T03:45:30.815Z,12.90
2022-09-11T03:47:58.816Z,13.00
2022-09-11T03:50:27.678Z,12.90
2022-09-11T03:52:57.001Z,12.90
2022-09-11T03:55:25.005Z,12.90
2022-09-11T03:57:53.000Z,12.90
2022-09-11T04:00:21.031Z,12.90
2022-09-11T04:02:49.610Z,13.00
2022-09-11T04:05:17.900Z,12.90
2022-09-11T04:07:45.885Z,12.90
2022-09-11T04:10:15.287Z,12.90
2022-09-11T04:12:44.100Z,12.90
2022-09-11T04:15:12.221Z,12.80
2022-09-11T04:17:40.153Z,12.80
2022-09-11T04:20:09.169Z,12.80
2022-09-11T04:22:37.388Z,12.80
2022-09-11T04:25:06.612Z,12.80
2022-09-11T04:27:36.170Z,12.80
2022-09-11T04:30:04.001Z,12.80
2022-09-11T04:32:32.199Z,12.80
2022-09-11T04:35:01.429Z,12.80
2022-09-11T04:37:29.943Z,12.80
2022-09-11T04:39:57.958Z,12.80
2022-09-11T04:42:26.351Z,12.80
2022-09-11T04:44:55.745Z,12.80
2022-09-11T04:47:23.721Z,12.80
2022-09-11T04:49:52.272Z,12.80
2022-09-11T04:52:20.325Z,12.80
2022-09-11T04:54:48.401Z,12.80
2022-09-11T04:57:16.372Z,12.80
2022-09-11T04:59:44.360Z,12.80
2022-09-11T05:02:13.817Z,12.80
2022-09-11T05:04:41.722Z,12.80
2022-09-11T05:07:13.403Z,12.90
2022-09-11T05:09:41.397Z,12.80
2022-09-11T05:12:10.591Z,12.90
2022-09-11T05:14:38.548Z,12.90
2022-09-11T05:17:06.496Z,12.90
2022-09-11T05:19:35.948Z,13.00
2022-09-11T05:22:04.281Z,13.00
2022-09-11T05:24:32.349Z,13.00
2022-09-11T05:27:00.255Z,13.10
2022-09-11T05:29:32.566Z,13.10
2022-09-11T05:32:01.240Z,13.20
2022-09-11T05:34:29.697Z,13.20
2022-09-11T05:36:59.144Z,13.30
2022-09-11T05:39:27.248Z,13.30
2022-09-11T05:41:55.879Z,13.40
2022-09-11T05:44:23.878Z,13.40
2022-09-11T05:46:52.537Z,13.40
2022-09-11T05:49:21.705Z,13.40
2022-09-11T05:51:49.669Z,13.40
2022-09-11T05:54:19.027Z,13.40
2022-09-11T05:56:47.005Z,13.40
2022-09-11T05:59:15.608Z,13.50
2022-09-11T06:01:43.984Z,13.60
2022-09-11T06:04:12.385Z,13.60
2022-09-11T06:06:40.891Z,13.70
2022-09-11T06:09:08.914Z,13.70
2022-09-11T06:11:38.235Z,13.70
2022-09-11T06:14:06.260Z,13.80
2022-09-11T06:16:35.207Z,14.00
2022-09-11T06:19:04.722Z,14.10
2022-09-11T06:21:32.799Z,14.20
2022-09-11T06:24:00.782Z,14.20
2022-09-11T06:26:29.447Z,14.30
2022-09-11T06:28:58.897Z,14.30
2022-09-11T06:31:27.757Z,14.40
2022-09-11T06:33:55.839Z,14.40
2022-09-11T06:36:26.980Z,14.50
2022-09-11T06:38:56.770Z,14.60
2022-09-11T06:41:26.275Z,14.60
2022-09-11T06:43:54.294Z,14.60
2022-09-11T06:46:25.412Z,14.70
2022-09-11T06:48:54.797Z,14.70
2022-09-11T06:51:23.969Z,14.70
2022-09-11T06:53:56.154Z,14.70
2022-09-11T06:56:24.100Z,14.80
2022-09-11T06:58:52.453Z,15.00
2022-09-11T07:01:21.931Z,15.20
2022-09-11T07:03:53.065Z,15.30
2022-09-11T07:06:22.408Z,15.50
2022-09-11T07:08:53.125Z,15.50
2022-09-11T07:11:21.435Z,15.50
2022-09-11T07:13:49.756Z,15.50
2022-09-11T07:16:17.767Z,15.50
2022-09-11T07:18:47.424Z,15.50
2022-09-11T07:21:18.601Z,15.40
2022-09-11T07:23:49.364Z,15.40
2022-09-11T07:26:18.350Z,15.40
2022-09-11T07:28:48.757Z,15.30
2022-09-11T07:31:21.085Z,15.30
2022-09-11T07:33:50.220Z,15.20
2022-09-11T07:36:23.629Z,15.10
2022-09-11T07:38:52.275Z,15.00
2022-09-11T07:41:22.322Z,15.00
2022-09-11T07:43:54.499Z,14.90
2022-09-11T07:46:24.332Z,14.90
2022-09-11T07:48:52.355Z,14.90
2022-09-11T07:51:21.677Z,14.90
2022-09-11T07:53:51.557Z,15.00
2022-09-11T07:56:23.134Z,15.00
2022-09-11T07:58:52.247Z,15.10
2022-09-11T08:01:24.077Z,15.10
2022-09-11T08:03:56.841Z,15.30
2022-09-11T08:06:27.905Z,15.40
2022-09-11T08:08:57.057Z,15.40
2022-09-11T08:11:26.973Z,15.50
2022-09-11T08:13:56.256Z,15.60
2022-09-11T08:16:26.908Z,15.60
2022-09-11T08:18:55.040Z,15.60
2022-09-11T08:21:23.662Z,15.70
2022-09-11T08:23:53.100Z,15.80
2022-09-11T08:26:22.968Z,15.90
2022-09-11T08:28:52.716Z,16.00
2022-09-11T08:31:22.337Z,16.10
2022-09-11T08:33:50.360Z,16.20
2022-09-11T08:36:18.469Z,16.40
2022-09-11T08:38:47.245Z,16.50
2022-09-11T08:41:28.681Z,16.60
2022-09-11T08:43:59.867Z,16.70
2022-09-11T08:46:38.045Z,16.90
2022-09-11T08:49:12.279Z,17.20
2022-09-11T08:51:40.734Z,17.40
2022-09-11T08:54:12.621Z,17.40
2022-09-11T08:56:44.036Z,17.40
2022-09-11T08:59:24.213Z,17.30
2022-09-11T09:02:04.615Z,17.20
2022-09-11T09:04:47.801Z,17.20
2022-09-11T09:07:27.722Z,17.10
2022-09-11T09:10:04.263Z,17.00
2022-09-11T09:12:41.547Z,16.90
2022-09-11T09:15:18.753Z,16.80
2022-09-11T09:17:51.105Z,16.80
2022-09-11T09:20:23.108Z,16.80
2022-09-11T09:22:55.620Z,16.80
2022-09-11T09:25:25.081Z,16.60
2022-09-11T09:27:56.535Z,16.60
2022-09-11T09:30:27.372Z,16.50
2022-09-11T09:33:02.005Z,16.40
2022-09-11T09:35:39.558Z,16.20
2022-09-11T09:38:13.844Z,16.10
2022-09-11T09:40:49.246Z,16.00
2022-09-11T09:43:30.204Z,16.10
2022-09-11T09:46:09.068Z,16.10
2022-09-11T09:48:40.586Z,16.30
2022-09-11T09:51:13.792Z,16.40
2022-09-11T09:53:46.540Z,16.50
2022-09-11T09:56:18.180Z,16.60
2022-09-11T09:58:55.540Z,16.70
2022-09-11T10:01:46.912Z,16.90
2022-09-11T10:04:18.453Z,17.20
2022-09-11T10:06:48.771Z,17.30
2022-09-11T10:09:22.167Z,17.30
2022-09-11T10:12:01.768Z,17.30
2022-09-11T10:17:24.237Z,17.10
2022-09-11T10:19:55.634Z,17.10
2022-09-11T10:22:27.221Z,17.10
2022-09-11T10:25:03.652Z,17.20
2022-09-11T10:27:35.946Z,17.30
2022-09-11T10:30:06.244Z,17.40
2022-09-11T10:32:38.592Z,17.70
2022-09-11T10:35:10.694Z,17.90
2022-09-11T10:37:39.129Z,18.00
2022-09-11T10:40:17.875Z,18.10
2022-09-11T10:42:46.375Z,18.10
2022-09-11T10:45:18.267Z,18.10
2022-09-11T10:47:46.762Z,17.90
2022-09-11T10:50:24.833Z,17.80
2022-09-11T10:53:04.332Z,17.80
2022-09-11T10:55:36.245Z,17.80
2022-09-11T10:58:09.344Z,18.00
2022-09-11T11:00:38.741Z,18.20
2022-09-11T11:03:07.876Z,18.70
2022-09-11T11:05:47.883Z,19.30
2022-09-11T11:08:46.197Z,19.70
2022-09-11T11:11:25.837Z,20.00
2022-09-11T11:14:17.871Z,20.00
2022-09-11T11:16:57.689Z,20.10
2022-09-11T11:19:41.115Z,20.10
2022-09-11T11:22:21.144Z,20.00
2022-09-11T11:25:02.014Z,20.10
2022-09-11T11:27:45.132Z,20.10
2022-09-11T11:30:17.723Z,20.10
2022-09-11T11:33:06.218Z,20.00
2022-09-11T11:35:41.958Z,20.30
2022-09-11T11:38:14.898Z,20.90
2022-09-11T11:40:46.370Z,21.60
2022-09-11T11:43:17.433Z,22.20
2022-09-11T11:45:50.077Z,22.70
2022-09-11T11:48:29.314Z,23.40
2022-09-11T11:51:00.026Z,24.00
2022-09-11T11:53:35.497Z,23.60
2022-09-11T11:56:14.208Z,23.30
2022-09-11T11:58:51.148Z,23.70
2022-09-11T12:01:25.181Z,24.10
2022-09-11T12:04:02.729Z,24.70
2022-09-11T12:06:31.292Z,25.20
2022-09-11T12:08:59.371Z,25.60
2022-09-11T12:11:31.596Z,26.10
2022-09-11T12:14:00.280Z,26.00
2022-09-11T12:16:32.115Z,25.60
2022-09-11T12:19:07.631Z,25.30
2022-09-11T12:21:57.569Z,24.70
2022-09-11T12:24:54.903Z,24.30
2022-09-11T12:27:52.962Z,24.80
2022-09-11T12:30:30.769Z,25.70
2022-09-11T12:33:01.099Z,26.00
2022-09-11T12:35:46.922Z,26.10
2022-09-11T12:38:23.918Z,26.10
2022-09-11T12:40:56.214Z,26.60
2022-09-11T12:43:46.596Z,26.40
2022-09-11T12:46:53.493Z,25.70
2022-09-11T12:49:23.659Z,25.60
2022-09-11T12:51:55.289Z,26.10
2022-09-11T12:54:27.327Z,26.40
2022-09-11T12:57:02.729Z,27.20
2022-09-11T12:59:34.449Z,27.70
2022-09-11T13:02:05.647Z,28.10
2022-09-11T13:04:34.862Z,28.00
2022-09-11T13:07:05.835Z,28.30
2022-09-11T13:09:37.661Z,28.50
2022-09-11T13:12:42.313Z,28.60
2022-09-11T13:15:36.806Z,28.70
2022-09-11T13:18:29.756Z,28.90
2022-09-11T13:21:00.611Z,27.60
2022-09-11T13:23:30.378Z,26.70
2022-09-11T13:25:59.055Z,25.80
2022-09-11T13:28:31.639Z,25.30
2022-09-11T13:31:03.231Z,25.10
2022-09-11T13:33:32.560Z,24.80
2022-09-11T13:36:03.661Z,24.30
2022-09-11T13:38:34.885Z,23.80
2022-09-11T13:41:06.231Z,23.40
2022-09-11T13:43:37.873Z,22.90
2022-09-11T13:46:23.669Z,22.50
2022-09-11T13:48:54.154Z,22.10
2022-09-11T13:51:24.882Z,21.80
2022-09-11T13:54:05.895Z,21.50
2022-09-11T13:56:41.476Z,21.00
2022-09-11T13:59:47.036Z,20.70
2022-09-11T14:02:40.595Z,20.30
2022-09-11T14:05:15.718Z,20.00
2022-09-11T14:07:56.528Z,20.00
2022-09-11T14:10:29.320Z,19.90
2022-09-11T14:13:10.581Z,19.80
2022-09-11T14:15:42.322Z,19.50
2022-09-11T14:18:21.556Z,19.20
2022-09-11T14:20:49.656Z,18.90
2022-09-11T14:23:24.370Z,18.70
2022-09-11T14:26:16.277Z,18.50
2022-09-11T14:28:50.833Z,18.40
2022-09-11T14:31:30.626Z,18.20
2022-09-11T14:34:20.380Z,18.10
2022-09-11T14:36:52.751Z,17.90
2022-09-11T14:39:27.408Z,17.90
2022-09-11T14:41:58.001Z,17.70
2022-09-11T14:44:27.215Z,17.60
2022-09-11T14:46:56.085Z,17.50
2022-09-11T14:49:24.354Z,17.40
2022-09-11T14:51:58.078Z,17.30
2022-09-11T14:54:27.627Z,17.40
2022-09-11T14:56:56.981Z,17.60
2022-09-11T14:59:24.997Z,17.90
2022-09-11T15:01:53.117Z,17.90
2022-09-11T15:04:23.170Z,17.90
2022-09-11T15:06:53.113Z,17.80
2022-09-11T15:09:21.066Z,17.80
2022-09-11T15:11:52.415Z,17.70
2022-09-11T15:14:44.600Z,17.70
2022-09-11T15:17:12.092Z,17.60
2022-09-11T15:19:40.839Z,17.50
2022-09-11T15:22:09.545Z,17.40
2022-09-11T15:24:37.505Z,17.30
2022-09-11T15:27:05.719Z,17.20
2022-09-11T15:29:36.028Z,17.20
2022-09-11T15:32:04.586Z,17.10
2022-09-11T15:34:33.142Z,17.10
2022-09-11T15:37:01.362Z,17.00
2022-09-11T15:39:30.142Z,17.00
2022-09-11T15:41:58.106Z,17.00
2022-09-11T15:44:28.592Z,16.90
2022-09-11T15:46:59.407Z,16.80
2022-09-11T15:49:29.346Z,16.80
2022-09-11T15:51:57.946Z,16.70
2022-09-11T15:54:26.361Z,16.60
2022-09-11T15:56:54.848Z,16.60
2022-09-11T15:59:23.147Z,16.50
2022-09-11T16:01:51.201Z,16.40
2022-09-11T16:04:22.949Z,16.40
2022-09-11T16:06:52.871Z,16.30
2022-09-11T16:09:23.161Z,16.30
2022-09-11T16:11:51.790Z,16.20
2022-09-11T16:14:21.442Z,16.20
2022-09-11T16:16:49.760Z,16.20
2022-09-11T16:19:19.518Z,16.20
2022-09-11T16:21:49.344Z,16.10
2022-09-11T16:24:18.438Z,16.10
2022-09-11T16:26:46.922Z,16.00
2022-09-11T16:29:17.920Z,16.00
2022-09-11T16:31:45.923Z,15.90
2022-09-11T16:34:15.064Z,15.90
2022-09-11T16:36:43.067Z,15.80
2022-09-11T16:39:14.978Z,15.80
2022-09-11T16:41:43.490Z,15.70
2022-09-11T16:44:14.797Z,15.70
2022-09-11T16:46:43.237Z,15.70
2022-09-11T16:49:15.408Z,15.60
2022-09-11T16:51:44.432Z,15.50
2022-09-11T16:54:13.797Z,15.40
2022-09-11T16:56:45.901Z,15.30
2022-09-11T16:59:15.576Z,15.20
2022-09-11T17:01:43.614Z,15.10
2022-09-11T17:04:11.667Z,15.00
2022-09-11T17:06:39.647Z,14.90
2022-09-11T17:09:07.660Z,14.90
2022-09-11T17:11:37.558Z,14.80
2022-09-11T17:14:05.585Z,14.70
2022-09-11T17:16:35.620Z,14.70
2022-09-11T17:19:03.597Z,14.60
2022-09-11T17:21:35.794Z,14.60
2022-09-11T17:24:05.277Z,14.60
2022-09-11T17:26:33.525Z,14.50
2022-09-11T17:29:04.428Z,14.50
2022-09-11T17:31:32.780Z,14.50
2022-09-11T17:34:00.889Z,14.40
2022-09-11T17:36:29.126Z,14.40
2022-09-11T17:38:59.443Z,14.30
2022-09-11T17:41:27.756Z,14.30
2022-09-11T17:43:55.743Z,14.30
2022-09-11T17:46:25.421Z,14.20
2022-09-11T17:48:53.432Z,14.20
2022-09-11T17:51:24.157Z,14.10
2022-09-11T17:53:55.351Z,14.10
2022-09-11T17:56:25.778Z,14.10
2022-09-11T17:58:54.924Z,14.10
2022-09-11T18:01:28.828Z,14.00
2022-09-11T18:03:58.592Z,14.10
2022-09-11T18:06:29.551Z,14.00
2022-09-11T18:09:01.751Z,14.00
2022-09-11T18:11:30.383Z,14.00
2022-09-11T18:14:00.024Z,14.00
2022-09-11T18:16:29.477Z,13.90
2022-09-11T18:18:57.333Z,13.90
2022-09-11T18:21:25.978Z,13.90
2022-09-11T18:23:54.678Z,13.90
2022-09-11T18:26:25.687Z,13.90
2022-09-11T18:29:00.095Z,13.80
2022-09-11T18:31:31.281Z,13.80
2022-09-11T18:34:01.089Z,13.80
2022-09-11T18:36:30.549Z,13.80
2022-09-11T18:39:00.992Z,13.80
2022-09-11T18:41:30.124Z,13.80
2022-09-11T18:44:00.087Z,13.80
2022-09-11T18:46:31.695Z,13.80
2022-09-11T18:49:00.240Z,13.80
2022-09-11T18:51:28.580Z,13.90
2022-09-11T18:53:56.838Z,13.80
2022-09-11T18:56:27.147Z,13.80
2022-09-11T18:58:56.015Z,13.80
2022-09-11T19:01:26.183Z,13.80
2022-09-11T19:03:55.572Z,13.80
2022-09-11T19:06:25.698Z,13.80
2022-09-11T19:08:55.472Z,13.70
2022-09-11T19:11:25.130Z,13.70
2022-09-11T19:13:54.692Z,13.60
2022-09-11T19:16:23.035Z,13.60
2022-09-11T19:18:51.336Z,13.50
2022-09-11T19:21:22.388Z,13.40
2022-09-11T19:23:51.871Z,13.40
2022-09-11T19:26:21.982Z,13.30
2022-09-11T19:28:51.494Z,13.20
2022-09-11T19:31:21.502Z,13.20
2022-09-11T19:33:49.609Z,13.10
2022-09-11T19:36:20.600Z,13.00
2022-09-11T19:38:51.486Z,12.90
2022-09-11T19:41:21.450Z,12.80
2022-09-11T19:43:50.664Z,12.80
2022-09-11T19:46:21.463Z,12.70
2022-09-11T19:48:49.772Z,12.60
2022-09-11T19:51:21.209Z,12.60
2022-09-11T19:53:50.078Z,12.50
2022-09-11T19:56:18.314Z,12.40
2022-09-11T19:58:46.590Z,12.40
2022-09-11T20:01:16.711Z,12.30
2022-09-11T20:03:46.240Z,12.30
2022-09-11T20:06:15.298Z,12.30
2022-09-11T20:08:46.429Z,12.20
2022-09-11T20:11:16.153Z,12.20
2022-09-11T20:13:44.186Z,12.20
2022-09-11T20:16:14.952Z,12.10
2022-09-11T20:18:43.519Z,12.10
2022-09-11T20:21:13.148Z,12.10
2022-09-11T20:23:41.237Z,12.00
2022-09-11T20:26:16.938Z,12.00
2022-09-11T20:28:45.626Z,11.90
2022-09-11T20:31:14.934Z,11.90
2022-09-11T20:33:43.206Z,12.00
2022-09-11T20:36:11.541Z,12.00
2022-09-11T20:38:39.538Z,12.00
2022-09-11T20:41:08.372Z,12.00
2022-09-11T20:43:37.749Z,12.10
2022-09-11T20:46:06.063Z,12.10
2022-09-11T20:48:34.368Z,12.10
2022-09-11T20:51:04.157Z,12.20
2022-09-11T20:53:32.176Z,12.30
2022-09-11T20:56:04.665Z,12.30
2022-09-11T20:58:32.697Z,12.30
2022-09-11T21:01:02.376Z,12.30
2022-09-11T21:03:31.183Z,12.30
2022-09-11T21:06:06.087Z,12.30
2022-09-11T21:08:34.153Z,12.20
2022-09-11T21:11:03.299Z,12.20
2022-09-11T21:13:31.353Z,12.20
2022-09-11T21:15:59.714Z,12.10
2022-09-11T21:18:29.053Z,12.10
2022-09-11T21:20:57.329Z,12.10
2022-09-11T21:23:25.712Z,12.00
2022-09-11T21:25:53.716Z,12.00
2022-09-11T21:28:21.960Z,12.10
2022-09-11T21:30:50.049Z,12.10
2022-09-11T21:33:18.059Z,12.20
2022-09-11T21:35:52.808Z,12.20
2022-09-11T21:38:21.885Z,12.20
2022-09-11T21:40:49.906Z,12.20
2022-09-11T21:43:18.232Z,12.30
2022-09-11T21:45:46.292Z,12.30
2022-09-11T21:48:14.422Z,12.30
2022-09-11T21:50:42.622Z,12.30
2022-09-11T21:53:12.723Z,12.30
2022-09-11T21:55:42.433Z,12.20
2022-09-11T21:58:14.087Z,12.20
2022-09-11T22:00:43.203Z,12.20
2022-09-11T22:03:12.561Z,12.10
2022-09-11T22:05:43.219Z,12.10
2022-09-11T22:08:13.830Z,12.00
2022-09-11T22:10:42.801Z,11.90
2022-09-11T22:13:11.192Z,11.90
2022-09-11T22:15:41.668Z,11.80
2022-09-11T22:18:09.700Z,11.80
2022-09-11T22:20:38.842Z,11.70
2022-09-11T22:23:07.569Z,11.70
2022-09-11T22:25:37.580Z,11.60
2022-09-11T22:28:05.621Z,11.60
2022-09-11T22:30:33.958Z,11.60
2022-09-11T22:33:02.256Z,11.50
2022-09-11T22:35:30.200Z,11.60
2022-09-11T22:37:58.149Z,11.50
2022-09-11T22:40:26.120Z,11.50
2022-09-11T22:42:55.608Z,11.50
2022-09-11T22:45:23.409Z,11.50
2022-09-11T22:47:51.345Z,11.60
2022-09-11T22:50:19.610Z,11.50
2022-09-11T22:52:48.384Z,11.50
2022-09-11T22:55:16.348Z,11.50
2022-09-11T22:57:44.313Z,11.50
2022-09-11T23:00:15.532Z,11.40
2022-09-11T23:02:44.121Z,11.40
2022-09-11T23:05:29.441Z,11.40
2022-09-11T23:07:57.419Z,11.40
2022-09-11T23:10:25.621Z,11.30
2022-09-11T23:12:54.235Z,11.20
2022-09-11T23:15:23.716Z,11.20
2022-09-11T23:17:51.665Z,11.20
2022-09-11T23:20:19.799Z,11.10
2022-09-11T23:22:47.784Z,11.10
2022-09-11T23:25:15.912Z,11.10
2022-09-11T23:27:45.304Z,11.10
2022-09-11T23:30:13.538Z,11.00
2022-09-11T23:32:42.884Z,11.00
2022-09-11T23:35:11.029Z,11.00
2022-09-11T23:37:42.361Z,11.00
2022-09-11T23:40:13.337Z,11.00
2022-09-11T23:42:41.441Z,11.00
2022-09-11T23:45:12.610Z,11.00
2022-09-11T23:47:42.125Z,11.10
2022-09-11T23:50:10.677Z,11.10
2022-09-11T23:52:39.533Z,11.20
2022-09-11T23:55:08.310Z,11.10
2022-09-11T23:57:36.347Z,11.10
